createdAt,value
2022-12-09T00:01:11.645Z,22.52
2022-12-09T00:03:40.499Z,21.38
2022-12-09T00:06:10.388Z,21.17
2022-12-09T00:08:38.715Z,21.40
2022-12-09T00:11:07.428Z,21.45
2022-12-09T00:13:36.056Z,21.60
2022-12-09T00:16:08.666Z,21.17
2022-12-09T00:18:37.564Z,22.00
2022-12-09T00:21:13.455Z,21.52
2022-12-09T00:23:42.029Z,21.88
2022-12-09T00:26:10.503Z,21.65
2022-12-09T00:28:39.519Z,21.70
2022-12-09T00:31:10.017Z,20.67
2022-12-09T00:33:38.229Z,21.33
2022-12-09T00:36:07.366Z,19.92
2022-12-09T00:38:35.649Z,21.08
2022-12-09T00:41:04.099Z,21.35
2022-12-09T00:43:32.741Z,22.30
2022-12-09T00:46:01.495Z,21.70
2022-12-09T00:48:34.325Z,21.90
2022-12-09T00:51:02.886Z,21.13
2022-12-09T00:53:31.189Z,19.67
2022-12-09T00:55:59.693Z,21.13
2022-12-09T00:58:28.290Z,21.88
2022-12-09T01:00:56.758Z,19.90
2022-12-09T01:03:25.355Z,21.15
2022-12-09T01:05:56.080Z,21.23
2022-12-09T01:08:24.372Z,20.92
2022-12-09T01:10:52.717Z,21.20
2022-12-09T01:13:21.148Z,21.65
2022-12-09T01:15:49.464Z,21.75
2022-12-09T01:18:17.864Z,23.52
2022-12-09T01:20:46.160Z,23.75
2022-12-09T01:23:15.790Z,21.08
2022-12-09T01:25:44.231Z,21.27
2022-12-09T01:28:12.599Z,20.52
2022-12-09T01:30:40.883Z,21.73
2022-12-09T01:33:09.916Z,21.30
2022-12-09T01:35:41.550Z,21.02
2022-12-09T01:38:10.112Z,21.20
2022-12-09T01:40:39.722Z,22.40
2022-12-09T01:43:14.869Z,21.70
2022-12-09T01:45:44.169Z,20.75
2022-12-09T01:48:14.689Z,21.75
2022-12-09T01:50:48.023Z,21.05
2022-12-09T01:53:17.515Z,20.85
2022-12-09T01:55:47.464Z,20.38
2022-12-09T01:58:16.136Z,21.08
2022-12-09T02:00:44.588Z,21.02
2022-12-09T02:03:13.727Z,21.38
2022-12-09T02:05:42.718Z,21.48
2022-12-09T02:08:13.187Z,20.02
2022-12-09T02:10:48.305Z,21.88
2022-12-09T02:13:24.627Z,22.50
2022-12-09T02:15:55.250Z,21.77
2022-12-09T02:18:26.944Z,21.27
2022-12-09T02:20:58.821Z,20.70
2022-12-09T02:23:31.361Z,22.45
2022-12-09T02:26:06.990Z,21.60
2022-12-09T02:29:04.451Z,22.92
2022-12-09T02:31:45.452Z,22.30
2022-12-09T02:34:18.588Z,21.15
2022-12-09T02:36:55.178Z,20.23
2022-12-09T02:39:27.702Z,21.60
2022-12-09T02:41:57.821Z,21.65
2022-12-09T02:44:26.962Z,21.27
2022-12-09T02:46:56.355Z,22.08
2022-12-09T02:49:26.840Z,21.25
2022-12-09T02:51:55.948Z,21.83
2022-12-09T02:54:25.682Z,21.63
2022-12-09T02:56:58.525Z,22.17
2022-12-09T02:59:26.877Z,21.80
2022-12-09T03:02:01.889Z,19.92
2022-12-09T03:04:32.991Z,20.80
2022-12-09T03:07:12.716Z,20.58
2022-12-09T03:09:43.817Z,19.63
2022-12-09T03:12:13.282Z,21.10
2022-12-09T03:14:43.249Z,18.50
2022-12-09T03:17:14.974Z,19.75
2022-12-09T03:19:47.263Z,19.77
2022-12-09T03:22:18.250Z,19.65
2022-12-09T03:24:50.905Z,18.95
2022-12-09T03:27:26.059Z,20.30
2022-12-09T03:29:55.181Z,19.88
2022-12-09T03:32:26.750Z,19.95
2022-12-09T03:35:01.081Z,20.05
2022-12-09T03:37:29.747Z,20.50
2022-12-09T03:39:59.749Z,19.83
2022-12-09T03:42:32.492Z,19.63
2022-12-09T03:45:03.547Z,19.98
2022-12-09T03:47:31.977Z,19.75
2022-12-09T03:50:01.743Z,19.05
2022-12-09T03:52:33.754Z,19.17
2022-12-09T03:55:06.874Z,19.20
2022-12-09T03:57:37.684Z,19.40
2022-12-09T04:00:08.184Z,19.95
2022-12-09T04:02:36.963Z,18.15
2022-12-09T04:05:08.051Z,20.23
2022-12-09T04:07:36.600Z,20.88
2022-12-09T04:10:06.651Z,18.48
2022-12-09T04:12:35.212Z,18.20
2022-12-09T04:15:03.526Z,18.65
2022-12-09T04:17:32.072Z,19.08
2022-12-09T04:20:00.688Z,19.30
2022-12-09T04:22:30.708Z,19.10
2022-12-09T04:24:59.051Z,19.95
2022-12-09T04:27:27.508Z,19.33
2022-12-09T04:29:55.814Z,19.80
2022-12-09T04:32:24.528Z,19.00
2022-12-09T04:34:53.136Z,19.83
2022-12-09T04:37:21.475Z,18.67
2022-12-09T04:39:51.396Z,20.00
2022-12-09T04:42:19.889Z,18.98
2022-12-09T04:44:48.217Z,18.92
2022-12-09T04:47:16.930Z,18.90
2022-12-09T04:49:45.440Z,19.13
2022-12-09T04:52:13.723Z,18.38
2022-12-09T04:54:42.313Z,19.58
2022-12-09T04:57:12.481Z,19.05
2022-12-09T04:59:40.842Z,18.05
2022-12-09T05:02:09.241Z,18.48
2022-12-09T05:04:37.863Z,18.15
2022-12-09T05:07:06.464Z,18.05
2022-12-09T05:09:35.310Z,19.35
2022-12-09T05:12:04.173Z,19.05
2022-12-09T05:14:33.923Z,18.73
2022-12-09T05:17:03.812Z,19.73
2022-12-09T05:19:32.227Z,21.08
2022-12-09T05:22:00.620Z,20.33
2022-12-09T05:24:29.004Z,20.30
2022-12-09T05:26:57.612Z,18.30
2022-12-09T05:29:25.969Z,16.98
2022-12-09T05:31:56.014Z,21.23
2022-12-09T05:34:24.499Z,19.23
2022-12-09T05:36:53.610Z,22.45
2022-12-09T05:39:22.139Z,19.73
2022-12-09T05:41:50.631Z,21.23
2022-12-09T05:44:18.992Z,21.75
2022-12-09T05:46:47.695Z,20.77
2022-12-09T05:49:17.714Z,22.17
2022-12-09T05:51:46.163Z,23.83
2022-12-09T05:54:14.510Z,23.67
2022-12-09T05:56:47.873Z,22.15
2022-12-09T05:59:16.935Z,22.85
2022-12-09T06:01:45.283Z,23.08
2022-12-09T06:04:13.937Z,21.55
2022-12-09T06:06:44.269Z,23.20
2022-12-09T06:09:13.285Z,21.75
2022-12-09T06:11:42.395Z,23.38
2022-12-09T06:14:12.077Z,23.42
2022-12-09T06:16:40.668Z,21.43
2022-12-09T06:19:11.482Z,23.08
2022-12-09T06:21:40.997Z,23.83
2022-12-09T06:24:11.710Z,24.23
2022-12-09T06:26:40.069Z,23.63
2022-12-09T06:29:08.682Z,24.90
2022-12-09T06:31:37.246Z,25.20
2022-12-09T06:34:06.108Z,24.50
2022-12-09T06:36:34.579Z,24.48
2022-12-09T06:39:10.200Z,23.63
2022-12-09T06:41:41.449Z,22.92
2022-12-09T06:44:10.453Z,24.52
2022-12-09T06:46:39.120Z,23.02
2022-12-09T06:49:07.976Z,23.63
2022-12-09T06:51:36.487Z,23.83
2022-12-09T06:54:07.086Z,23.15
2022-12-09T06:56:35.478Z,23.90
2022-12-09T06:59:08.639Z,24.88
2022-12-09T07:01:37.953Z,22.83
2022-12-09T07:04:07.734Z,24.00
2022-12-09T07:06:38.317Z,24.47
2022-12-09T07:09:08.918Z,24.73
2022-12-09T07:11:37.808Z,23.75
2022-12-09T07:14:06.219Z,22.88
2022-12-09T07:16:36.957Z,23.63
2022-12-09T07:19:06.252Z,23.42
2022-12-09T07:21:35.222Z,22.77
2022-12-09T07:24:04.688Z,23.98
2022-12-09T07:26:33.633Z,24.35
2022-12-09T07:29:03.110Z,23.90
2022-12-09T07:31:31.974Z,23.50
2022-12-09T07:34:03.033Z,24.33
2022-12-09T07:36:33.039Z,23.75
2022-12-09T07:39:03.280Z,24.08
2022-12-09T07:41:31.819Z,22.85
2022-12-09T07:44:00.488Z,22.42
2022-12-09T07:46:29.297Z,25.38
2022-12-09T07:48:58.667Z,22.05
2022-12-09T07:51:29.564Z,25.10
2022-12-09T07:53:58.665Z,24.80
2022-12-09T07:56:28.383Z,24.75
2022-12-09T07:58:57.409Z,22.70
2022-12-09T08:01:30.134Z,23.23
2022-12-09T08:03:59.378Z,22.73
2022-12-09T08:06:30.737Z,23.90
2022-12-09T08:09:00.698Z,23.30
2022-12-09T08:11:31.028Z,21.87
2022-12-09T08:14:07.224Z,24.80
2022-12-09T08:16:37.572Z,23.17
2022-12-09T08:19:06.241Z,24.73
2022-12-09T08:21:36.775Z,22.13
2022-12-09T08:26:37.504Z,27.58
2022-12-09T08:29:09.924Z,25.10
2022-12-09T08:31:41.626Z,25.33
2022-12-09T08:34:11.137Z,25.77
2022-12-09T08:36:41.126Z,25.90
2022-12-09T08:39:10.942Z,27.23
2022-12-09T08:41:40.162Z,26.88
2022-12-09T08:44:11.368Z,26.88
2022-12-09T08:46:42.054Z,27.50
2022-12-09T08:49:11.355Z,28.17
2022-12-09T08:51:41.941Z,29.33
2022-12-09T08:54:10.717Z,28.85
2022-12-09T08:56:39.483Z,23.70
2022-12-09T08:59:08.350Z,22.75
2022-12-09T09:01:37.274Z,26.40
2022-12-09T09:04:08.083Z,24.80
2022-12-09T09:06:37.428Z,26.05
2022-12-09T09:09:10.876Z,26.58
2022-12-09T09:11:39.853Z,26.33
2022-12-09T09:14:10.897Z,23.00
2022-12-09T09:19:08.886Z,18.70
2022-12-09T09:21:37.837Z,21.63
2022-12-09T09:24:12.094Z,23.10
2022-12-09T09:26:42.590Z,25.17
2022-12-09T09:29:12.677Z,25.92
2022-12-09T09:31:41.949Z,23.95
2022-12-09T09:34:11.282Z,20.90
2022-12-09T09:36:41.614Z,23.45
2022-12-09T09:41:45.502Z,24.70
2022-12-09T09:44:20.505Z,20.77
2022-12-09T09:46:50.709Z,21.83
2022-12-09T09:49:24.532Z,25.35
2022-12-09T09:51:53.396Z,21.33
2022-12-09T09:54:23.487Z,22.42
2022-12-09T09:56:55.940Z,21.67
2022-12-09T09:59:38.546Z,15.45
2022-12-09T10:02:18.332Z,21.33
2022-12-09T10:04:55.669Z,17.95
2022-12-09T10:07:29.150Z,22.42
2022-12-09T10:10:05.579Z,23.65
2022-12-09T10:12:41.627Z,24.40
2022-12-09T10:15:13.345Z,24.02
2022-12-09T10:17:48.923Z,20.10
2022-12-09T10:20:19.796Z,26.80
2022-12-09T10:22:51.542Z,23.15
2022-12-09T10:25:24.978Z,20.63
2022-12-09T10:27:56.807Z,20.63
2022-12-09T10:30:29.941Z,19.55
2022-12-09T10:33:02.133Z,20.13
2022-12-09T10:35:32.939Z,20.15
2022-12-09T10:38:08.293Z,21.85
2022-12-09T10:40:46.893Z,22.05
2022-12-09T10:43:38.864Z,16.85
2022-12-09T10:46:19.625Z,17.58
2022-12-09T10:48:54.076Z,17.25
2022-12-09T10:51:25.956Z,22.23
2022-12-09T10:53:56.840Z,24.60
2022-12-09T10:56:28.861Z,14.77
2022-12-09T10:59:10.704Z,20.15
2022-12-09T11:01:50.829Z,21.80
2022-12-09T11:04:25.124Z,22.88
2022-12-09T11:06:59.392Z,23.23
2022-12-09T11:09:32.244Z,23.08
2022-12-09T11:12:03.959Z,24.58
2022-12-09T11:14:35.863Z,19.95
2022-12-09T11:17:15.897Z,20.27
2022-12-09T11:19:47.937Z,18.92
2022-12-09T11:22:24.941Z,19.10
2022-12-09T11:24:56.748Z,22.65
2022-12-09T11:27:32.613Z,21.77
2022-12-09T11:30:12.714Z,23.02
2022-12-09T11:32:59.819Z,19.73
2022-12-09T11:35:35.724Z,21.38
2022-12-09T11:38:14.138Z,19.83
2022-12-09T11:40:42.468Z,21.20
2022-12-09T11:43:12.089Z,21.40
2022-12-09T11:45:41.432Z,21.63
2022-12-09T11:48:32.833Z,20.17
2022-12-09T11:51:03.422Z,21.20
2022-12-09T11:53:33.090Z,22.45
2022-12-09T11:56:05.630Z,21.93
2022-12-09T11:58:40.795Z,20.02
2022-12-09T12:01:13.303Z,21.17
2022-12-09T12:03:47.286Z,20.55
2022-12-09T12:06:20.629Z,21.17
2022-12-09T12:08:52.128Z,21.67
2022-12-09T12:11:22.585Z,20.08
2022-12-09T12:13:55.435Z,20.88
2022-12-09T12:16:28.569Z,19.73
2022-12-09T12:19:01.990Z,20.67
2022-12-09T12:21:42.974Z,20.20
2022-12-09T12:24:33.453Z,21.75
2022-12-09T12:27:11.975Z,22.45
2022-12-09T12:29:47.657Z,20.48
2022-12-09T12:32:25.113Z,20.33
2022-12-09T12:35:04.606Z,20.73
2022-12-09T12:37:43.581Z,21.85
2022-12-09T12:40:22.011Z,21.63
2022-12-09T12:43:21.081Z,19.90
2022-12-09T12:46:10.445Z,19.73
2022-12-09T12:48:46.107Z,21.38
2022-12-09T12:51:22.435Z,20.73
2022-12-09T12:53:56.462Z,23.13
2022-12-09T12:56:25.866Z,20.80
2022-12-09T12:59:02.996Z,21.27
2022-12-09T13:01:35.169Z,20.02
2022-12-09T13:04:13.464Z,20.75
2022-12-09T13:06:45.624Z,20.83
2022-12-09T13:09:16.319Z,20.08
2022-12-09T13:11:54.482Z,23.42
2022-12-09T13:14:24.704Z,20.00
2022-12-09T13:16:54.433Z,19.50
2022-12-09T13:19:26.842Z,20.37
2022-12-09T13:21:55.480Z,21.88
2022-12-09T13:24:27.401Z,21.33
2022-12-09T13:27:00.839Z,19.13
2022-12-09T13:29:36.882Z,18.95
2022-12-09T13:32:19.931Z,18.50
2022-12-09T13:34:52.597Z,19.08
2022-12-09T13:37:34.519Z,18.95
2022-12-09T13:40:04.065Z,18.55
2022-12-09T13:42:56.354Z,19.95
2022-12-09T13:45:30.379Z,19.95
2022-12-09T13:48:02.270Z,20.40
2022-12-09T13:50:36.270Z,22.17
2022-12-09T13:53:06.232Z,21.90
2022-12-09T13:55:40.879Z,21.67
2022-12-09T13:58:30.703Z,21.17
2022-12-09T14:01:04.740Z,20.23
2022-12-09T14:03:36.068Z,21.15
2022-12-09T14:06:07.953Z,20.90
2022-12-09T14:08:41.583Z,20.60
2022-12-09T14:11:47.073Z,21.17
2022-12-09T14:14:46.884Z,20.00
2022-12-09T14:17:21.721Z,20.08
2022-12-09T14:19:56.328Z,20.98
2022-12-09T14:22:35.029Z,20.08
2022-12-09T14:25:50.959Z,21.13
2022-12-09T14:28:37.677Z,22.00
2022-12-09T14:31:08.986Z,20.65
2022-12-09T14:33:39.202Z,21.15
2022-12-09T14:36:21.517Z,21.13
2022-12-09T14:39:22.573Z,21.95
2022-12-09T14:41:50.259Z,22.23
2022-12-09T14:44:24.551Z,20.73
2022-12-09T14:46:54.581Z,20.65
2022-12-09T14:51:53.963Z,21.33
2022-12-09T14:54:25.375Z,21.88
2022-12-09T14:56:58.032Z,21.45
2022-12-09T14:59:28.808Z,21.27
2022-12-09T15:01:58.633Z,21.63
2022-12-09T15:04:30.940Z,22.45
2022-12-09T15:07:26.062Z,22.02
2022-12-09T15:09:56.289Z,22.65
2022-12-09T15:12:28.344Z,22.88
2022-12-09T15:14:58.927Z,23.08
2022-12-09T15:20:00.773Z,22.33
2022-12-09T15:22:32.728Z,23.17
2022-12-09T15:25:03.154Z,23.13
2022-12-09T15:27:31.705Z,23.25
2022-12-09T15:29:59.961Z,24.25
2022-12-09T15:32:30.358Z,25.23
2022-12-09T15:35:17.255Z,23.77
2022-12-09T15:37:47.656Z,24.27
2022-12-09T15:40:22.137Z,24.55
2022-12-09T15:42:53.204Z,21.55
2022-12-09T15:45:23.704Z,21.20
2022-12-09T15:47:54.862Z,23.10
2022-12-09T15:50:25.154Z,21.77
2022-12-09T15:52:56.306Z,23.05
2022-12-09T15:55:27.290Z,22.50
2022-12-09T15:57:58.086Z,23.27
2022-12-09T16:00:26.499Z,22.45
2022-12-09T16:02:54.872Z,22.75
2022-12-09T16:05:25.241Z,29.73
2022-12-09T16:07:57.280Z,29.00
2022-12-09T16:10:27.763Z,28.65
2022-12-09T16:13:07.421Z,26.35
2022-12-09T16:15:47.780Z,25.52
2022-12-09T16:18:19.702Z,24.00
2022-12-09T16:21:02.172Z,39.50
2022-12-09T16:23:32.079Z,22.98
2022-12-09T16:26:07.286Z,24.73
2022-12-09T16:28:36.077Z,22.25
2022-12-09T16:31:17.950Z,20.88
2022-12-09T16:33:49.111Z,19.58
2022-12-09T16:36:20.336Z,21.58
2022-12-09T16:39:24.763Z,19.73
2022-12-09T16:41:58.786Z,20.35
2022-12-09T16:44:31.224Z,20.73
2022-12-09T16:47:11.996Z,20.38
2022-12-09T16:49:41.406Z,19.17
2022-12-09T16:52:13.004Z,19.67
2022-12-09T16:54:43.784Z,22.30
2022-12-09T16:57:16.386Z,20.92
2022-12-09T16:59:45.705Z,21.48
2022-12-09T17:02:18.930Z,20.92
2022-12-09T17:04:47.367Z,20.98
2022-12-09T17:07:15.721Z,20.75
2022-12-09T17:09:45.369Z,21.25
2022-12-09T17:12:13.720Z,21.67
2022-12-09T17:14:42.146Z,21.30
2022-12-09T17:17:10.542Z,19.42
2022-12-09T17:19:38.875Z,19.98
2022-12-09T17:22:07.136Z,19.23
2022-12-09T17:24:35.517Z,21.15
2022-12-09T17:27:05.279Z,19.98
2022-12-09T17:29:33.667Z,20.60
2022-12-09T17:32:02.011Z,19.83
2022-12-09T17:34:30.337Z,19.75
2022-12-09T17:36:59.139Z,20.00
2022-12-09T17:39:27.429Z,20.15
2022-12-09T17:41:55.827Z,20.98
2022-12-09T17:44:25.535Z,20.95
2022-12-09T17:46:53.869Z,23.00
2022-12-09T17:49:22.370Z,22.10
2022-12-09T17:51:50.635Z,22.52
2022-12-09T17:54:18.907Z,22.05
2022-12-09T17:56:47.382Z,22.60
2022-12-09T17:59:16.839Z,20.70
2022-12-09T18:01:47.210Z,20.40
2022-12-09T18:04:15.846Z,21.63
2022-12-09T18:06:45.602Z,20.98
2022-12-09T18:09:15.698Z,22.40
2022-12-09T18:11:44.734Z,21.92
2022-12-09T18:14:13.000Z,22.23
2022-12-09T18:16:41.357Z,23.15
2022-12-09T18:19:15.241Z,21.73
2022-12-09T18:21:43.818Z,22.67
2022-12-09T18:24:12.260Z,21.92
2022-12-09T18:26:42.243Z,21.85
2022-12-09T18:29:11.387Z,20.40
2022-12-09T18:31:39.940Z,19.75
2022-12-09T18:34:08.292Z,19.70
2022-12-09T18:36:37.995Z,21.05
2022-12-09T18:39:06.617Z,20.47
2022-12-09T18:41:35.658Z,21.30
2022-12-09T18:44:05.942Z,23.65
2022-12-09T18:46:36.445Z,23.20
2022-12-09T18:51:33.868Z,22.02
2022-12-09T18:54:05.394Z,23.67
2022-12-09T18:56:34.166Z,22.48
2022-12-09T18:59:07.495Z,23.08
2022-12-09T19:01:39.405Z,21.20
2022-12-09T19:04:11.448Z,20.30
2022-12-09T19:06:41.452Z,21.80
2022-12-09T19:09:14.996Z,22.90
2022-12-09T19:11:44.297Z,23.08
2022-12-09T19:14:14.044Z,42.75
2022-12-09T19:16:43.179Z,26.05
2022-12-09T19:19:13.384Z,23.90
2022-12-09T19:21:41.895Z,23.13
2022-12-09T19:24:15.001Z,24.73
2022-12-09T19:26:43.861Z,24.23
2022-12-09T19:29:13.332Z,23.08
2022-12-09T19:31:43.258Z,25.40
2022-12-09T19:34:14.416Z,25.65
2022-12-09T19:36:43.611Z,25.33
2022-12-09T19:39:14.260Z,25.10
2022-12-09T19:44:11.980Z,23.15
2022-12-09T19:46:40.777Z,23.02
2022-12-09T19:49:09.456Z,23.08
2022-12-09T19:51:37.758Z,24.70
2022-12-09T19:54:06.346Z,25.00
2022-12-09T19:56:35.962Z,25.15
2022-12-09T19:59:05.050Z,22.98
2022-12-09T20:01:34.913Z,23.33
2022-12-09T20:04:19.064Z,22.15
2022-12-09T20:06:48.082Z,21.35
2022-12-09T20:09:24.046Z,21.27
2022-12-09T20:11:54.200Z,22.00
2022-12-09T20:14:22.481Z,20.52
2022-12-09T20:16:50.817Z,21.35
2022-12-09T20:19:19.828Z,21.52
2022-12-09T20:21:48.850Z,23.73
2022-12-09T20:24:17.128Z,26.42
2022-12-09T20:26:45.441Z,24.30
2022-12-09T20:29:15.267Z,23.15
2022-12-09T20:31:44.165Z,23.30
2022-12-09T20:34:14.888Z,22.95
2022-12-09T20:39:15.223Z,23.05
2022-12-09T20:41:44.500Z,23.08
2022-12-09T20:44:14.923Z,22.80
2022-12-09T20:46:47.027Z,23.42
2022-12-09T20:49:15.370Z,26.50
2022-12-09T20:51:45.263Z,26.70
2022-12-09T20:54:14.687Z,25.65
2022-12-09T20:56:43.108Z,26.58
2022-12-09T20:59:12.508Z,26.92
2022-12-09T21:01:43.605Z,26.83
2022-12-09T21:04:11.959Z,25.15
2022-12-09T21:06:41.398Z,25.35
2022-12-09T21:09:11.514Z,26.17
2022-12-09T21:11:40.125Z,24.17
2022-12-09T21:14:08.669Z,21.83
2022-12-09T21:16:39.647Z,19.90
2022-12-09T21:19:14.549Z,19.92
2022-12-09T21:21:46.673Z,19.83
2022-12-09T21:24:15.699Z,22.02
2022-12-09T21:26:44.370Z,23.08
2022-12-09T21:29:12.991Z,23.13
2022-12-09T21:31:42.896Z,22.92
2022-12-09T21:34:12.905Z,23.13
2022-12-09T21:36:43.396Z,21.95
2022-12-09T21:39:13.218Z,22.83
2022-12-09T21:41:41.940Z,22.73
2022-12-09T21:44:14.330Z,23.50
2022-12-09T21:46:43.056Z,23.17
2022-12-09T21:49:13.101Z,23.23
2022-12-09T21:51:41.608Z,23.42
2022-12-09T21:54:09.923Z,24.35
2022-12-09T21:56:38.531Z,22.13
2022-12-09T21:59:07.634Z,22.25
2022-12-09T22:01:37.631Z,22.92
2022-12-09T22:04:07.747Z,22.77
2022-12-09T22:06:37.607Z,23.67
2022-12-09T22:09:07.844Z,21.75
2022-12-09T22:11:37.898Z,22.27
2022-12-09T22:14:07.292Z,25.00
2022-12-09T22:16:37.402Z,24.13
2022-12-09T22:19:08.158Z,25.35
2022-12-09T22:24:07.697Z,22.95
2022-12-09T22:26:36.429Z,23.58
2022-12-09T22:29:05.696Z,22.95
2022-12-09T22:31:36.454Z,23.55
2022-12-09T22:34:06.555Z,23.52
2022-12-09T22:36:37.027Z,23.60
2022-12-09T22:41:36.303Z,23.65
2022-12-09T22:44:04.854Z,24.60
2022-12-09T22:46:34.628Z,24.10
2022-12-09T22:49:04.717Z,23.85
2022-12-09T22:51:34.820Z,23.60
2022-12-09T22:54:05.298Z,24.60
2022-12-09T22:56:35.012Z,24.77
2022-12-09T22:59:03.425Z,23.77
2022-12-09T23:01:33.214Z,24.10
2022-12-09T23:04:02.309Z,24.92
2022-12-09T23:06:31.087Z,24.85
2022-12-09T23:08:59.390Z,22.77
2022-12-09T23:11:29.376Z,24.58
2022-12-09T23:13:59.592Z,23.08
2022-12-09T23:16:28.269Z,24.50
2022-12-09T23:18:58.021Z,23.17
2022-12-09T23:21:28.195Z,22.23
2022-12-09T23:23:58.017Z,23.58
2022-12-09T23:26:28.289Z,23.80
2022-12-09T23:29:00.820Z,23.02
2022-12-09T23:31:30.809Z,23.98
2022-12-09T23:33:59.525Z,22.27
2022-12-09T23:36:31.597Z,24.58
2022-12-09T23:39:00.607Z,26.33
2022-12-09T23:41:29.307Z,25.38
2022-12-09T23:43:57.596Z,23.30
2022-12-09T23:46:30.692Z,22.52
2022-12-09T23:48:59.061Z,21.95
2022-12-09T23:51:30.438Z,21.30
2022-12-09T23:54:00.465Z,22.15
2022-12-09T23:56:30.332Z,22.15
2022-12-09T23:59:00.088Z,21.92
